createdAt,value
2022-08-30T00:02:47.717Z,2.40
2022-08-30T00:07:50.818Z,1.85
2022-08-30T00:12:52.793Z,2.35
2022-08-30T00:17:59.752Z,1.98
2022-08-30T00:23:01.768Z,2.35
2022-08-30T00:28:04.196Z,2.80
2022-08-30T00:33:06.015Z,2.60
2022-08-30T00:38:08.523Z,2.70
2022-08-30T00:43:27.770Z,3.22
2022-08-30T00:48:31.308Z,2.88
2022-08-30T00:53:38.024Z,2.53
2022-08-30T00:58:44.071Z,2.53
2022-08-30T01:03:46.829Z,3.60
2022-08-30T01:08:48.795Z,2.50
2022-08-30T01:13:53.806Z,2.92
2022-08-30T01:18:57.723Z,2.88
2022-08-30T01:24:02.158Z,3.47
2022-08-30T01:29:15.498Z,3.00
2022-08-30T01:34:17.481Z,3.13
2022-08-30T01:39:19.420Z,2.80
2022-08-30T01:44:21.150Z,3.65
2022-08-30T01:49:27.797Z,3.55
2022-08-30T01:54:33.349Z,3.13
2022-08-30T01:59:54.066Z,3.20
2022-08-30T02:05:00.878Z,3.75
2022-08-30T02:10:04.991Z,3.95
2022-08-30T02:15:07.706Z,4.25
2022-08-30T02:20:21.823Z,3.55
2022-08-30T02:25:23.796Z,3.40
2022-08-30T02:30:25.599Z,3.88
2022-08-30T02:35:27.846Z,3.58
2022-08-30T02:40:31.689Z,3.58
2022-08-30T02:45:38.214Z,3.70
2022-08-30T02:50:42.884Z,4.20
2022-08-30T02:55:44.730Z,4.10
2022-08-30T03:00:47.464Z,4.22
2022-08-30T03:05:49.271Z,4.15
2022-08-30T03:10:51.085Z,4.20
2022-08-30T03:15:52.722Z,3.55
2022-08-30T03:20:55.064Z,4.53
2022-08-30T03:25:57.522Z,4.90
2022-08-30T03:30:59.317Z,4.72
2022-08-30T03:36:02.276Z,4.18
2022-08-30T03:41:05.680Z,4.38
2022-08-30T03:46:12.578Z,4.05
2022-08-30T03:51:14.350Z,4.20
2022-08-30T03:56:24.548Z,5.80
2022-08-30T04:01:26.398Z,4.95
2022-08-30T04:06:28.433Z,5.25
2022-08-30T04:11:30.228Z,5.07
2022-08-30T04:16:32.126Z,5.03
2022-08-30T04:21:34.042Z,5.72
2022-08-30T04:26:44.553Z,5.50
2022-08-30T04:31:46.773Z,4.85
2022-08-30T04:36:49.912Z,5.20
2022-08-30T04:41:52.355Z,5.60
2022-08-30T04:46:54.261Z,4.68
2022-08-30T04:51:56.058Z,4.97
2022-08-30T04:56:57.798Z,4.82
2022-08-30T05:02:00.163Z,5.78
2022-08-30T05:07:01.930Z,4.80
2022-08-30T05:12:03.761Z,4.97
2022-08-30T05:17:05.489Z,5.70
2022-08-30T05:22:07.747Z,5.10
2022-08-30T05:27:09.536Z,4.47
2022-08-30T05:32:15.210Z,5.18
2022-08-30T05:37:24.085Z,4.80
2022-08-30T05:42:26.050Z,7.65
2022-08-30T05:47:28.379Z,4.75
2022-08-30T05:52:30.137Z,4.65
2022-08-30T05:57:33.942Z,4.97
2022-08-30T06:02:53.583Z,5.15
2022-08-30T06:08:05.289Z,5.38
2022-08-30T06:13:07.377Z,4.95
2022-08-30T06:18:14.658Z,5.88
2022-08-30T06:23:17.715Z,5.53
2022-08-30T06:28:19.691Z,4.90
2022-08-30T06:33:23.666Z,5.07
2022-08-30T06:38:40.293Z,4.80
2022-08-30T06:43:50.087Z,4.18
2022-08-30T06:48:56.168Z,4.72
2022-08-30T06:53:58.821Z,6.07
2022-08-30T06:59:01.822Z,3.67
2022-08-30T07:04:04.786Z,4.45
2022-08-30T07:09:06.512Z,3.67
2022-08-30T07:14:38.511Z,2.30
2022-08-30T07:19:41.402Z,2.25
2022-08-30T07:24:45.386Z,2.10
2022-08-30T07:29:49.411Z,1.77
2022-08-30T07:34:51.740Z,1.80
2022-08-30T07:39:53.564Z,1.70
2022-08-30T07:45:04.696Z,2.30
2022-08-30T07:50:08.800Z,1.48
2022-08-30T07:55:10.704Z,1.35
2022-08-30T08:00:12.852Z,1.30
2022-08-30T08:05:17.348Z,1.38
2022-08-30T08:10:24.567Z,1.20
2022-08-30T08:15:26.582Z,16.63
2022-08-30T08:20:28.785Z,1.38
2022-08-30T08:25:31.287Z,1.42
2022-08-30T08:30:36.411Z,1.00
2022-08-30T08:35:43.221Z,1.15
2022-08-30T08:41:13.132Z,1.48
2022-08-30T08:46:41.117Z,1.30
2022-08-30T08:52:06.862Z,1.20
2022-08-30T08:57:13.749Z,1.20
2022-08-30T09:02:29.499Z,1.55
2022-08-30T09:07:37.091Z,1.58
2022-08-30T09:12:38.818Z,1.40
2022-08-30T09:17:49.937Z,1.67
2022-08-30T09:22:51.612Z,1.63
2022-08-30T09:28:12.138Z,1.63
2022-08-30T09:33:21.340Z,1.40
2022-08-30T09:38:30.451Z,1.27
2022-08-30T09:43:34.695Z,1.50
2022-08-30T09:48:45.061Z,1.60
2022-08-30T09:54:19.314Z,1.42
2022-08-30T09:59:51.184Z,1.38
2022-08-30T10:05:01.683Z,1.10
2022-08-30T10:10:09.385Z,1.35
2022-08-30T10:15:32.267Z,1.63
2022-08-30T10:20:56.667Z,1.00
2022-08-30T10:26:34.321Z,1.20
2022-08-30T10:31:46.076Z,1.25
2022-08-30T10:36:55.378Z,1.67
2022-08-30T10:42:07.823Z,0.82
2022-08-30T10:47:50.309Z,1.00
2022-08-30T10:53:10.545Z,2.40
2022-08-30T10:58:12.796Z,1.65
2022-08-30T11:03:51.681Z,0.82
2022-08-30T11:09:08.435Z,1.67
2022-08-30T11:14:16.059Z,1.55
2022-08-30T11:19:23.800Z,1.90
2022-08-30T11:24:27.924Z,1.38
2022-08-30T11:29:37.460Z,1.52
2022-08-30T11:34:45.311Z,1.70
2022-08-30T11:39:47.010Z,1.55
2022-08-30T11:44:48.680Z,1.80
2022-08-30T11:50:08.571Z,0.93
2022-08-30T11:55:45.197Z,1.63
2022-08-30T12:00:51.429Z,1.30
2022-08-30T12:05:59.918Z,1.40
2022-08-30T12:11:26.626Z,1.70
2022-08-30T12:16:28.348Z,2.05
2022-08-30T12:21:43.802Z,1.20
2022-08-30T12:26:49.878Z,1.48
2022-08-30T12:31:56.339Z,1.92
2022-08-30T12:37:11.323Z,1.63
2022-08-30T12:42:35.311Z,1.30
2022-08-30T12:48:03.414Z,1.38
2022-08-30T12:53:14.156Z,1.35
2022-08-30T12:58:16.851Z,1.85
2022-08-30T13:03:37.505Z,1.40
2022-08-30T13:08:45.685Z,1.65
2022-08-30T13:13:52.353Z,1.70
2022-08-30T13:19:14.966Z,1.90
2022-08-30T13:24:16.948Z,1.40
2022-08-30T13:29:22.208Z,0.30
2022-08-30T13:34:24.027Z,1.92
2022-08-30T13:39:26.088Z,1.00
2022-08-30T13:44:28.029Z,1.40
2022-08-30T13:49:50.692Z,1.25
2022-08-30T13:54:55.214Z,1.58
2022-08-30T13:59:57.132Z,1.23
2022-08-30T14:05:02.833Z,1.17
2022-08-30T14:10:45.607Z,1.17
2022-08-30T14:15:28.478Z,1.50
2022-08-30T14:20:30.651Z,1.60
2022-08-30T14:25:32.839Z,1.60
2022-08-30T14:30:34.779Z,0.98
2022-08-30T14:35:36.623Z,1.42
2022-08-30T14:40:38.572Z,1.63
2022-08-30T14:45:40.442Z,0.80
2022-08-30T14:50:44.076Z,1.58
2022-08-30T14:55:45.821Z,0.50
2022-08-30T15:00:52.516Z,1.10
2022-08-30T15:05:54.440Z,1.40
2022-08-30T15:10:56.483Z,0.98
2022-08-30T15:15:58.270Z,1.33
2022-08-30T15:21:00.522Z,1.10
2022-08-30T15:26:02.643Z,0.70
2022-08-30T15:31:08.557Z,1.42
2022-08-30T15:36:12.163Z,0.90
2022-08-30T15:41:15.013Z,0.82
2022-08-30T15:46:29.609Z,1.08
2022-08-30T15:51:38.827Z,1.20
2022-08-30T15:56:44.521Z,1.10
2022-08-30T16:01:47.730Z,1.20
2022-08-30T16:06:50.004Z,1.30
2022-08-30T16:11:51.963Z,1.23
2022-08-30T16:16:55.239Z,0.60
2022-08-30T16:21:57.665Z,1.10
2022-08-30T16:26:59.577Z,1.00
2022-08-30T16:32:02.371Z,1.23
2022-08-30T16:37:04.191Z,1.42
2022-08-30T16:42:08.006Z,1.83
2022-08-30T16:47:13.360Z,1.70
2022-08-30T16:52:16.198Z,0.63
2022-08-30T16:57:19.963Z,1.50
2022-08-30T17:02:22.381Z,1.27
2022-08-30T17:07:24.173Z,1.45
2022-08-30T17:12:26.311Z,0.98
2022-08-30T17:17:28.003Z,1.42
2022-08-30T17:22:35.182Z,1.10
2022-08-30T17:27:37.699Z,1.25
2022-08-30T17:32:39.685Z,1.25
2022-08-30T17:37:42.281Z,1.58
2022-08-30T17:42:45.315Z,0.88
2022-08-30T17:47:48.260Z,0.88
2022-08-30T17:52:50.342Z,0.93
2022-08-30T17:58:16.186Z,1.58
2022-08-30T18:03:17.968Z,1.55
2022-08-30T18:08:21.709Z,1.55
2022-08-30T18:13:28.562Z,1.00
2022-08-30T18:18:32.612Z,1.30
2022-08-30T18:23:35.431Z,1.27
2022-08-30T18:28:41.277Z,1.17
2022-08-30T18:33:43.078Z,1.73
2022-08-30T18:38:45.523Z,1.95
2022-08-30T18:44:01.805Z,1.95
2022-08-30T18:49:16.414Z,1.40
2022-08-30T18:54:25.425Z,1.10
2022-08-30T18:59:35.242Z,1.40
2022-08-30T19:04:43.398Z,1.27
2022-08-30T19:09:48.901Z,1.48
2022-08-30T19:14:51.130Z,2.25
2022-08-30T19:19:53.697Z,2.00
2022-08-30T19:24:55.483Z,1.58
2022-08-30T19:29:58.212Z,2.15
2022-08-30T19:35:00.211Z,1.63
2022-08-30T19:40:09.138Z,1.70
2022-08-30T19:45:12.855Z,1.90
2022-08-30T19:50:15.860Z,2.20
2022-08-30T19:55:17.739Z,1.92
2022-08-30T20:00:25.586Z,2.05
2022-08-30T20:05:27.415Z,2.33
2022-08-30T20:10:36.386Z,2.10
2022-08-30T20:15:38.517Z,2.17
2022-08-30T20:20:40.212Z,2.20
2022-08-30T20:25:41.997Z,2.80
2022-08-30T20:30:43.737Z,2.90
2022-08-30T20:35:49.044Z,2.42
2022-08-30T20:40:54.112Z,2.65
2022-08-30T20:45:56.473Z,2.17
2022-08-30T20:50:58.424Z,2.90
2022-08-30T20:56:00.359Z,2.60
2022-08-30T21:01:02.163Z,2.40
2022-08-30T21:06:04.192Z,2.28
2022-08-30T21:11:06.460Z,2.00
2022-08-30T21:16:08.282Z,2.78
2022-08-30T21:21:21.397Z,2.00
2022-08-30T21:26:24.220Z,1.70
2022-08-30T21:31:30.374Z,2.08
2022-08-30T21:36:47.494Z,1.95
2022-08-30T21:41:53.400Z,1.60
2022-08-30T21:46:55.400Z,1.60
2022-08-30T21:51:57.183Z,1.60
2022-08-30T21:57:00.684Z,1.90
2022-08-30T22:02:02.480Z,2.03
2022-08-30T22:07:06.596Z,2.70
2022-08-30T22:12:08.407Z,1.63
2022-08-30T22:17:10.127Z,1.67
2022-08-30T22:22:13.395Z,1.25
2022-08-30T22:27:15.140Z,1.40
2022-08-30T22:32:16.831Z,1.45
2022-08-30T22:37:19.648Z,1.42
2022-08-30T22:46:20.452Z,1.55
2022-08-30T22:51:34.411Z,1.52
2022-08-30T22:56:38.170Z,1.85
2022-08-30T23:01:43.814Z,1.30
2022-08-30T23:06:50.052Z,1.17
2022-08-30T23:11:51.894Z,1.15
2022-08-30T23:16:53.705Z,1.30
2022-08-30T23:21:55.584Z,1.40
2022-08-30T23:27:15.837Z,1.45
2022-08-30T23:32:36.826Z,1.83
2022-08-30T23:37:57.235Z,1.35
2022-08-30T23:43:17.728Z,1.90
2022-08-30T23:48:38.045Z,1.20
2022-08-30T23:53:58.577Z,1.35
2022-08-30T23:59:18.892Z,1.35
